sensor_id;sensor_type;location;lat;lon;timestamp;P1;durP1;ratioP1;P2;durP2;ratioP2
72439;SDS011;60446;50.752;4.352;2024-03-07T00:01:15;18.00;;;6.47;;
72439;SDS011;60446;50.752;4.352;2024-03-07T00:03:43;14.30;;;7.65;;
72439;SDS011;60446;50.752;4.352;2024-03-07T00:06:10;15.67;;;6.73;;
72439;SDS011;60446;50.752;4.352;2024-03-07T00:08:39;14.00;;;6.82;;
72439;SDS011;60446;50.752;4.352;2024-03-07T00:11:06;16.10;;;6.65;;
72439;SDS011;60446;50.752;4.352;2024-03-07T00:13:34;13.48;;;6.85;;
72439;SDS011;60446;50.752;4.352;2024-03-07T00:16:02;14.40;;;6.55;;
72439;SDS011;60446;50.752;4.352;2024-03-07T00:18:30;12.17;;;5.67;;
72439;SDS011;60446;50.752;4.352;2024-03-07T00:21:01;10.20;;;5.95;;
72439;SDS011;60446;50.752;4.352;2024-03-07T00:23:31;9.88;;;6.47;;
72439;SDS011;60446;50.752;4.352;2024-03-07T00:26:00;14.52;;;6.55;;
72439;SDS011;60446;50.752;4.352;2024-03-07T00:28:27;12.70;;;6.65;;
72439;SDS011;60446;50.752;4.352;2024-03-07T00:30:59;13.80;;;6.40;;
72439;SDS011;60446;50.752;4.352;2024-03-07T00:33:26;12.95;;;6.65;;
72439;SDS011;60446;50.752;4.352;2024-03-07T00:36:13;11.32;;;6.68;;
72439;SDS011;60446;50.752;4.352;2024-03-07T00:38:40;12.38;;;5.93;;
72439;SDS011;60446;50.752;4.352;2024-03-07T00:41:09;15.23;;;6.60;;
72439;SDS011;60446;50.752;4.352;2024-03-07T00:43:36;13.37;;;6.67;;
72439;SDS011;60446;50.752;4.352;2024-03-07T00:46:03;13.18;;;5.75;;
72439;SDS011;60446;50.752;4.352;2024-03-07T00:48:32;15.00;;;6.93;;
72439;SDS011;60446;50.752;4.352;2024-03-07T00:51:00;16.77;;;6.95;;
72439;SDS011;60446;50.752;4.352;2024-03-07T00:53:27;15.23;;;7.22;;
72439;SDS011;60446;50.752;4.352;2024-03-07T00:55:54;14.17;;;6.27;;
72439;SDS011;60446;50.752;4.352;2024-03-07T00:58:21;19.48;;;7.95;;
72439;SDS011;60446;50.752;4.352;2024-03-07T01:00:49;25.05;;;9.50;;
72439;SDS011;60446;50.752;4.352;2024-03-07T01:03:16;18.75;;;8.02;;
72439;SDS011;60446;50.752;4.352;2024-03-07T01:05:44;17.48;;;8.80;;
72439;SDS011;60446;50.752;4.352;2024-03-07T01:08:11;25.60;;;9.70;;
72439;SDS011;60446;50.752;4.352;2024-03-07T01:10:38;31.55;;;10.32;;
72439;SDS011;60446;50.752;4.352;2024-03-07T01:13:06;30.65;;;11.68;;
72439;SDS011;60446;50.752;4.352;2024-03-07T01:15:35;29.80;;;12.57;;
72439;SDS011;60446;50.752;4.352;2024-03-07T01:18:02;27.30;;;11.10;;
72439;SDS011;60446;50.752;4.352;2024-03-07T01:20:30;30.00;;;11.27;;
72439;SDS011;60446;50.752;4.352;2024-03-07T01:22:58;30.83;;;11.30;;
72439;SDS011;60446;50.752;4.352;2024-03-07T01:25:25;33.97;;;12.60;;
72439;SDS011;60446;50.752;4.352;2024-03-07T01:27:53;30.73;;;13.02;;
72439;SDS011;60446;50.752;4.352;2024-03-07T01:30:22;36.10;;;13.43;;
72439;SDS011;60446;50.752;4.352;2024-03-07T01:32:51;32.20;;;12.60;;
72439;SDS011;60446;50.752;4.352;2024-03-07T01:35:21;32.42;;;12.18;;
72439;SDS011;60446;50.752;4.352;2024-03-07T01:37:48;35.92;;;13.43;;
72439;SDS011;60446;50.752;4.352;2024-03-07T01:40:17;35.95;;;14.02;;
72439;SDS011;60446;50.752;4.352;2024-03-07T01:42:46;38.25;;;14.25;;
72439;SDS011;60446;50.752;4.352;2024-03-07T01:45:16;34.80;;;13.43;;
72439;SDS011;60446;50.752;4.352;2024-03-07T01:47:47;34.85;;;13.90;;
72439;SDS011;60446;50.752;4.352;2024-03-07T01:50:14;38.15;;;14.50;;
72439;SDS011;60446;50.752;4.352;2024-03-07T01:52:44;43.28;;;14.90;;
72439;SDS011;60446;50.752;4.352;2024-03-07T01:55:11;40.35;;;14.63;;
72439;SDS011;60446;50.752;4.352;2024-03-07T01:57:40;40.30;;;15.37;;
72439;SDS011;60446;50.752;4.352;2024-03-07T02:00:08;43.20;;;14.38;;
72439;SDS011;60446;50.752;4.352;2024-03-07T02:02:36;40.08;;;15.68;;
72439;SDS011;60446;50.752;4.352;2024-03-07T02:05:04;43.50;;;16.73;;
72439;SDS011;60446;50.752;4.352;2024-03-07T02:07:32;51.30;;;16.77;;
72439;SDS011;60446;50.752;4.352;2024-03-07T02:10:03;48.00;;;16.50;;
72439;SDS011;60446;50.752;4.352;2024-03-07T02:12:32;46.90;;;14.57;;
72439;SDS011;60446;50.752;4.352;2024-03-07T02:14:59;42.72;;;14.30;;
72439;SDS011;60446;50.752;4.352;2024-03-07T02:17:27;45.17;;;15.85;;
72439;SDS011;60446;50.752;4.352;2024-03-07T02:19:54;47.85;;;15.70;;
72439;SDS011;60446;50.752;4.352;2024-03-07T02:22:21;41.00;;;16.37;;
72439;SDS011;60446;50.752;4.352;2024-03-07T02:24:49;49.13;;;17.25;;
72439;SDS011;60446;50.752;4.352;2024-03-07T02:27:16;51.38;;;18.42;;
72439;SDS011;60446;50.752;4.352;2024-03-07T02:29:43;57.20;;;16.75;;
72439;SDS011;60446;50.752;4.352;2024-03-07T02:32:11;49.78;;;16.80;;
72439;SDS011;60446;50.752;4.352;2024-03-07T02:34:38;47.33;;;16.13;;
72439;SDS011;60446;50.752;4.352;2024-03-07T02:37:05;49.22;;;15.52;;
72439;SDS011;60446;50.752;4.352;2024-03-07T02:39:38;55.22;;;17.02;;
72439;SDS011;60446;50.752;4.352;2024-03-07T02:42:06;46.60;;;15.23;;
72439;SDS011;60446;50.752;4.352;2024-03-07T02:44:33;50.85;;;16.55;;
72439;SDS011;60446;50.752;4.352;2024-03-07T02:47:01;48.57;;;16.53;;
72439;SDS011;60446;50.752;4.352;2024-03-07T02:49:30;49.80;;;16.88;;
72439;SDS011;60446;50.752;4.352;2024-03-07T02:51:57;44.33;;;15.18;;
72439;SDS011;60446;50.752;4.352;2024-03-07T02:54:24;53.53;;;18.65;;
72439;SDS011;60446;50.752;4.352;2024-03-07T02:56:52;43.60;;;15.43;;
72439;SDS011;60446;50.752;4.352;2024-03-07T02:59:19;61.37;;;18.60;;
72439;SDS011;60446;50.752;4.352;2024-03-07T03:01:49;43.97;;;15.20;;
72439;SDS011;60446;50.752;4.352;2024-03-07T03:04:17;45.92;;;16.40;;
72439;SDS011;60446;50.752;4.352;2024-03-07T03:06:44;49.03;;;17.15;;
72439;SDS011;60446;50.752;4.352;2024-03-07T03:09:12;52.03;;;18.48;;
72439;SDS011;60446;50.752;4.352;2024-03-07T03:11:47;48.90;;;17.33;;
72439;SDS011;60446;50.752;4.352;2024-03-07T03:14:14;58.30;;;17.85;;
72439;SDS011;60446;50.752;4.352;2024-03-07T03:16:42;52.22;;;19.88;;
72439;SDS011;60446;50.752;4.352;2024-03-07T03:19:14;52.35;;;18.38;;
72439;SDS011;60446;50.752;4.352;2024-03-07T03:21:41;55.88;;;18.20;;
72439;SDS011;60446;50.752;4.352;2024-03-07T03:24:09;41.27;;;17.80;;
72439;SDS011;60446;50.752;4.352;2024-03-07T03:26:36;48.75;;;18.05;;
72439;SDS011;60446;50.752;4.352;2024-03-07T03:29:09;49.40;;;18.15;;
72439;SDS011;60446;50.752;4.352;2024-03-07T03:31:38;56.03;;;19.08;;
72439;SDS011;60446;50.752;4.352;2024-03-07T03:34:05;49.70;;;16.27;;
72439;SDS011;60446;50.752;4.352;2024-03-07T03:36:32;55.00;;;19.70;;
72439;SDS011;60446;50.752;4.352;2024-03-07T03:39:00;52.22;;;18.30;;
72439;SDS011;60446;50.752;4.352;2024-03-07T03:41:28;49.63;;;17.30;;
72439;SDS011;60446;50.752;4.352;2024-03-07T03:43:56;53.33;;;16.73;;
72439;SDS011;60446;50.752;4.352;2024-03-07T03:46:24;54.15;;;18.27;;
72439;SDS011;60446;50.752;4.352;2024-03-07T03:48:52;46.30;;;17.50;;
72439;SDS011;60446;50.752;4.352;2024-03-07T03:51:19;52.90;;;18.20;;
72439;SDS011;60446;50.752;4.352;2024-03-07T03:53:48;51.85;;;18.10;;
72439;SDS011;60446;50.752;4.352;2024-03-07T03:56:16;50.60;;;18.88;;
72439;SDS011;60446;50.752;4.352;2024-03-07T03:58:44;51.78;;;18.02;;
72439;SDS011;60446;50.752;4.352;2024-03-07T04:01:11;48.90;;;18.03;;
72439;SDS011;60446;50.752;4.352;2024-03-07T04:03:41;47.40;;;17.02;;
72439;SDS011;60446;50.752;4.352;2024-03-07T04:06:08;50.15;;;18.40;;
72439;SDS011;60446;50.752;4.352;2024-03-07T04:08:36;49.90;;;17.58;;
72439;SDS011;60446;50.752;4.352;2024-03-07T04:11:04;54.15;;;16.90;;
72439;SDS011;60446;50.752;4.352;2024-03-07T04:13:31;56.40;;;18.60;;
72439;SDS011;60446;50.752;4.352;2024-03-07T04:15:58;53.35;;;17.58;;
72439;SDS011;60446;50.752;4.352;2024-03-07T04:18:26;48.92;;;17.88;;
72439;SDS011;60446;50.752;4.352;2024-03-07T04:20:53;52.45;;;18.45;;
72439;SDS011;60446;50.752;4.352;2024-03-07T04:23:21;47.10;;;18.83;;
72439;SDS011;60446;50.752;4.352;2024-03-07T04:25:49;53.00;;;17.63;;
72439;SDS011;60446;50.752;4.352;2024-03-07T04:28:17;48.47;;;16.80;;
72439;SDS011;60446;50.752;4.352;2024-03-07T04:30:44;51.83;;;16.80;;
72439;SDS011;60446;50.752;4.352;2024-03-07T04:33:11;59.25;;;17.60;;
72439;SDS011;60446;50.752;4.352;2024-03-07T04:35:38;53.83;;;18.02;;
72439;SDS011;60446;50.752;4.352;2024-03-07T04:38:06;48.93;;;17.00;;
72439;SDS011;60446;50.752;4.352;2024-03-07T04:40:38;51.33;;;17.38;;
72439;SDS011;60446;50.752;4.352;2024-03-07T04:43:05;55.63;;;18.17;;
72439;SDS011;60446;50.752;4.352;2024-03-07T04:45:33;55.25;;;18.95;;
72439;SDS011;60446;50.752;4.352;2024-03-07T04:48:01;52.58;;;16.70;;
72439;SDS011;60446;50.752;4.352;2024-03-07T04:50:28;63.37;;;18.00;;
72439;SDS011;60446;50.752;4.352;2024-03-07T04:52:55;51.25;;;17.13;;
72439;SDS011;60446;50.752;4.352;2024-03-07T04:55:22;54.78;;;19.10;;
72439;SDS011;60446;50.752;4.352;2024-03-07T04:57:50;46.50;;;16.48;;
72439;SDS011;60446;50.752;4.352;2024-03-07T05:00:18;52.55;;;18.15;;
72439;SDS011;60446;50.752;4.352;2024-03-07T05:02:47;48.37;;;15.87;;
72439;SDS011;60446;50.752;4.352;2024-03-07T05:05:17;56.88;;;18.80;;
72439;SDS011;60446;50.752;4.352;2024-03-07T05:07:49;57.08;;;20.33;;
72439;SDS011;60446;50.752;4.352;2024-03-07T05:10:18;60.10;;;18.92;;
72439;SDS011;60446;50.752;4.352;2024-03-07T05:12:45;50.78;;;18.23;;
72439;SDS011;60446;50.752;4.352;2024-03-07T05:15:12;62.43;;;17.97;;
72439;SDS011;60446;50.752;4.352;2024-03-07T05:17:40;50.28;;;17.30;;
72439;SDS011;60446;50.752;4.352;2024-03-07T05:20:10;52.55;;;18.42;;
72439;SDS011;60446;50.752;4.352;2024-03-07T05:22:39;56.00;;;16.80;;
72439;SDS011;60446;50.752;4.352;2024-03-07T05:25:11;54.92;;;18.55;;
72439;SDS011;60446;50.752;4.352;2024-03-07T05:27:38;50.57;;;18.57;;
72439;SDS011;60446;50.752;4.352;2024-03-07T05:30:06;51.33;;;15.55;;
72439;SDS011;60446;50.752;4.352;2024-03-07T05:32:37;53.95;;;17.92;;
72439;SDS011;60446;50.752;4.352;2024-03-07T05:35:07;53.75;;;16.92;;
72439;SDS011;60446;50.752;4.352;2024-03-07T05:37:35;54.08;;;19.27;;
72439;SDS011;60446;50.752;4.352;2024-03-07T05:40:02;50.33;;;18.60;;
72439;SDS011;60446;50.752;4.352;2024-03-07T05:42:30;54.40;;;18.65;;
72439;SDS011;60446;50.752;4.352;2024-03-07T05:44:58;53.42;;;18.15;;
72439;SDS011;60446;50.752;4.352;2024-03-07T05:47:26;50.45;;;18.27;;
72439;SDS011;60446;50.752;4.352;2024-03-07T05:49:54;41.75;;;17.08;;
72439;SDS011;60446;50.752;4.352;2024-03-07T05:52:21;54.77;;;17.53;;
72439;SDS011;60446;50.752;4.352;2024-03-07T05:54:48;51.58;;;17.45;;
72439;SDS011;60446;50.752;4.352;2024-03-07T05:57:15;66.32;;;21.50;;
72439;SDS011;60446;50.752;4.352;2024-03-07T05:59:42;53.28;;;19.13;;
72439;SDS011;60446;50.752;4.352;2024-03-07T06:02:12;65.13;;;22.27;;
72439;SDS011;60446;50.752;4.352;2024-03-07T06:04:42;57.60;;;19.00;;
72439;SDS011;60446;50.752;4.352;2024-03-07T06:07:10;60.63;;;19.10;;
72439;SDS011;60446;50.752;4.352;2024-03-07T06:09:38;62.05;;;20.35;;
72439;SDS011;60446;50.752;4.352;2024-03-07T06:12:06;59.72;;;19.90;;
72439;SDS011;60446;50.752;4.352;2024-03-07T06:14:48;64.43;;;19.98;;
72439;SDS011;60446;50.752;4.352;2024-03-07T06:17:16;74.13;;;21.37;;
72439;SDS011;60446;50.752;4.352;2024-03-07T06:19:49;59.88;;;18.23;;
72439;SDS011;60446;50.752;4.352;2024-03-07T06:22:16;63.85;;;20.58;;
72439;SDS011;60446;50.752;4.352;2024-03-07T06:24:43;61.42;;;19.05;;
72439;SDS011;60446;50.752;4.352;2024-03-07T06:27:11;61.38;;;19.27;;
72439;SDS011;60446;50.752;4.352;2024-03-07T06:29:53;59.80;;;19.83;;
72439;SDS011;60446;50.752;4.352;2024-03-07T06:32:22;63.40;;;18.65;;
72439;SDS011;60446;50.752;4.352;2024-03-07T06:34:50;64.65;;;20.02;;
72439;SDS011;60446;50.752;4.352;2024-03-07T06:37:17;70.43;;;17.92;;
72439;SDS011;60446;50.752;4.352;2024-03-07T06:39:45;58.63;;;19.30;;
72439;SDS011;60446;50.752;4.352;2024-03-07T06:42:13;63.23;;;20.03;;
72439;SDS011;60446;50.752;4.352;2024-03-07T06:44:42;54.28;;;19.55;;
72439;SDS011;60446;50.752;4.352;2024-03-07T06:47:10;52.70;;;18.08;;
72439;SDS011;60446;50.752;4.352;2024-03-07T06:49:38;57.45;;;18.45;;
72439;SDS011;60446;50.752;4.352;2024-03-07T06:52:06;59.45;;;20.35;;
72439;SDS011;60446;50.752;4.352;2024-03-07T06:54:34;56.53;;;17.97;;
72439;SDS011;60446;50.752;4.352;2024-03-07T06:57:03;62.22;;;18.33;;
72439;SDS011;60446;50.752;4.352;2024-03-07T06:59:31;65.18;;;19.60;;
72439;SDS011;60446;50.752;4.352;2024-03-07T07:01:58;59.83;;;20.17;;
72439;SDS011;60446;50.752;4.352;2024-03-07T07:04:26;60.30;;;20.08;;
72439;SDS011;60446;50.752;4.352;2024-03-07T07:06:58;54.17;;;18.50;;
72439;SDS011;60446;50.752;4.352;2024-03-07T07:09:28;58.60;;;18.45;;
72439;SDS011;60446;50.752;4.352;2024-03-07T07:11:55;57.13;;;18.05;;
72439;SDS011;60446;50.752;4.352;2024-03-07T07:14:22;51.92;;;16.65;;
72439;SDS011;60446;50.752;4.352;2024-03-07T07:16:49;53.67;;;17.42;;
72439;SDS011;60446;50.752;4.352;2024-03-07T07:19:16;56.70;;;17.27;;
72439;SDS011;60446;50.752;4.352;2024-03-07T07:21:46;54.70;;;16.75;;
72439;SDS011;60446;50.752;4.352;2024-03-07T07:24:16;58.50;;;20.40;;
72439;SDS011;60446;50.752;4.352;2024-03-07T07:26:43;48.40;;;17.02;;
72439;SDS011;60446;50.752;4.352;2024-03-07T07:29:10;54.47;;;17.92;;
72439;SDS011;60446;50.752;4.352;2024-03-07T07:31:38;55.90;;;17.17;;
72439;SDS011;60446;50.752;4.352;2024-03-07T07:34:06;50.28;;;18.42;;
72439;SDS011;60446;50.752;4.352;2024-03-07T07:36:33;58.85;;;18.13;;
72439;SDS011;60446;50.752;4.352;2024-03-07T07:39:00;59.30;;;17.27;;
72439;SDS011;60446;50.752;4.352;2024-03-07T07:41:28;49.20;;;15.40;;
72439;SDS011;60446;50.752;4.352;2024-03-07T07:43:57;62.50;;;18.33;;
72439;SDS011;60446;50.752;4.352;2024-03-07T07:46:25;60.05;;;17.77;;
72439;SDS011;60446;50.752;4.352;2024-03-07T07:48:52;51.67;;;16.75;;
72439;SDS011;60446;50.752;4.352;2024-03-07T07:51:19;54.53;;;17.73;;
72439;SDS011;60446;50.752;4.352;2024-03-07T07:53:47;57.15;;;17.23;;
72439;SDS011;60446;50.752;4.352;2024-03-07T07:56:14;49.07;;;17.20;;
72439;SDS011;60446;50.752;4.352;2024-03-07T07:58:42;53.08;;;17.52;;
72439;SDS011;60446;50.752;4.352;2024-03-07T08:01:10;58.33;;;18.67;;
72439;SDS011;60446;50.752;4.352;2024-03-07T08:03:37;54.92;;;17.02;;
72439;SDS011;60446;50.752;4.352;2024-03-07T08:06:07;50.35;;;17.30;;
72439;SDS011;60446;50.752;4.352;2024-03-07T08:08:34;54.90;;;16.70;;
72439;SDS011;60446;50.752;4.352;2024-03-07T08:11:01;53.45;;;17.08;;
72439;SDS011;60446;50.752;4.352;2024-03-07T08:13:29;59.42;;;18.38;;
72439;SDS011;60446;50.752;4.352;2024-03-07T08:15:56;50.85;;;17.02;;
72439;SDS011;60446;50.752;4.352;2024-03-07T08:18:23;54.22;;;17.88;;
72439;SDS011;60446;50.752;4.352;2024-03-07T08:20:51;51.73;;;17.67;;
72439;SDS011;60446;50.752;4.352;2024-03-07T08:23:21;51.50;;;15.68;;
72439;SDS011;60446;50.752;4.352;2024-03-07T08:25:52;43.42;;;16.33;;
72439;SDS011;60446;50.752;4.352;2024-03-07T08:28:19;46.90;;;16.80;;
72439;SDS011;60446;50.752;4.352;2024-03-07T08:30:47;51.22;;;17.25;;
72439;SDS011;60446;50.752;4.352;2024-03-07T08:33:14;49.03;;;16.87;;
72439;SDS011;60446;50.752;4.352;2024-03-07T08:35:41;37.95;;;15.05;;
72439;SDS011;60446;50.752;4.352;2024-03-07T08:38:08;49.03;;;16.30;;
72439;SDS011;60446;50.752;4.352;2024-03-07T08:40:36;46.08;;;15.90;;
72439;SDS011;60446;50.752;4.352;2024-03-07T08:43:04;48.72;;;14.07;;
72439;SDS011;60446;50.752;4.352;2024-03-07T08:45:34;46.70;;;16.27;;
72439;SDS011;60446;50.752;4.352;2024-03-07T08:48:02;48.35;;;16.23;;
72439;SDS011;60446;50.752;4.352;2024-03-07T08:50:31;46.10;;;15.45;;
72439;SDS011;60446;50.752;4.352;2024-03-07T08:53:01;49.10;;;16.13;;
72439;SDS011;60446;50.752;4.352;2024-03-07T08:55:31;51.20;;;16.63;;
72439;SDS011;60446;50.752;4.352;2024-03-07T08:57:58;45.97;;;15.23;;
72439;SDS011;60446;50.752;4.352;2024-03-07T09:00:25;44.72;;;16.40;;
72439;SDS011;60446;50.752;4.352;2024-03-07T09:02:57;52.30;;;16.42;;
72439;SDS011;60446;50.752;4.352;2024-03-07T09:05:29;58.00;;;17.17;;
72439;SDS011;60446;50.752;4.352;2024-03-07T09:08:00;44.40;;;14.93;;
72439;SDS011;60446;50.752;4.352;2024-03-07T09:10:29;50.70;;;15.10;;
72439;SDS011;60446;50.752;4.352;2024-03-07T09:12:57;45.28;;;14.98;;
72439;SDS011;60446;50.752;4.352;2024-03-07T09:15:25;51.95;;;17.05;;
72439;SDS011;60446;50.752;4.352;2024-03-07T09:17:53;47.38;;;14.43;;
72439;SDS011;60446;50.752;4.352;2024-03-07T09:20:22;45.60;;;15.48;;
72439;SDS011;60446;50.752;4.352;2024-03-07T09:22:51;46.40;;;14.90;;
72439;SDS011;60446;50.752;4.352;2024-03-07T09:25:21;47.53;;;17.00;;
72439;SDS011;60446;50.752;4.352;2024-03-07T09:27:49;51.40;;;16.60;;
72439;SDS011;60446;50.752;4.352;2024-03-07T09:30:17;46.65;;;16.38;;
72439;SDS011;60446;50.752;4.352;2024-03-07T09:32:52;39.25;;;14.32;;
72439;SDS011;60446;50.752;4.352;2024-03-07T09:35:22;43.37;;;16.10;;
72439;SDS011;60446;50.752;4.352;2024-03-07T09:37:49;45.95;;;14.98;;
72439;SDS011;60446;50.752;4.352;2024-03-07T09:40:16;44.85;;;16.05;;
72439;SDS011;60446;50.752;4.352;2024-03-07T09:42:49;40.58;;;14.02;;
72439;SDS011;60446;50.752;4.352;2024-03-07T09:45:19;43.17;;;13.70;;
72439;SDS011;60446;50.752;4.352;2024-03-07T09:47:50;43.30;;;14.53;;
72439;SDS011;60446;50.752;4.352;2024-03-07T09:50:20;43.25;;;14.57;;
72439;SDS011;60446;50.752;4.352;2024-03-07T09:52:50;47.45;;;14.88;;
72439;SDS011;60446;50.752;4.352;2024-03-07T09:55:21;45.55;;;14.90;;
72439;SDS011;60446;50.752;4.352;2024-03-07T09:57:53;40.47;;;13.57;;
72439;SDS011;60446;50.752;4.352;2024-03-07T10:00:24;48.13;;;14.40;;
72439;SDS011;60446;50.752;4.352;2024-03-07T10:02:56;44.70;;;14.27;;
72439;SDS011;60446;50.752;4.352;2024-03-07T10:05:28;45.25;;;15.10;;
72439;SDS011;60446;50.752;4.352;2024-03-07T10:07:58;46.67;;;17.02;;
72439;SDS011;60446;50.752;4.352;2024-03-07T10:10:27;42.15;;;15.18;;
72439;SDS011;60446;50.752;4.352;2024-03-07T10:12:57;45.77;;;15.07;;
72439;SDS011;60446;50.752;4.352;2024-03-07T10:15:32;47.03;;;15.25;;
72439;SDS011;60446;50.752;4.352;2024-03-07T10:18:01;51.78;;;16.90;;
72439;SDS011;60446;50.752;4.352;2024-03-07T10:20:29;35.47;;;11.35;;
72439;SDS011;60446;50.752;4.352;2024-03-07T10:22:57;45.58;;;14.68;;
72439;SDS011;60446;50.752;4.352;2024-03-07T10:25:24;42.27;;;15.57;;
72439;SDS011;60446;50.752;4.352;2024-03-07T10:27:53;39.50;;;14.23;;
72439;SDS011;60446;50.752;4.352;2024-03-07T10:30:21;46.45;;;14.75;;
72439;SDS011;60446;50.752;4.352;2024-03-07T10:32:57;44.15;;;14.20;;
72439;SDS011;60446;50.752;4.352;2024-03-07T10:35:28;43.25;;;15.63;;
72439;SDS011;60446;50.752;4.352;2024-03-07T10:37:57;46.17;;;15.97;;
72439;SDS011;60446;50.752;4.352;2024-03-07T10:40:28;41.45;;;15.15;;
72439;SDS011;60446;50.752;4.352;2024-03-07T10:42:57;38.70;;;14.82;;
72439;SDS011;60446;50.752;4.352;2024-03-07T10:45:30;43.28;;;16.63;;
72439;SDS011;60446;50.752;4.352;2024-03-07T10:48:01;41.40;;;15.30;;
72439;SDS011;60446;50.752;4.352;2024-03-07T10:53:20;42.38;;;14.85;;
72439;SDS011;60446;50.752;4.352;2024-03-07T11:01:30;42.55;;;14.95;;
72439;SDS011;60446;50.752;4.352;2024-03-07T11:04:01;44.37;;;15.10;;
72439;SDS011;60446;50.752;4.352;2024-03-07T11:06:32;39.10;;;15.68;;
72439;SDS011;60446;50.752;4.352;2024-03-07T11:09:00;47.88;;;15.50;;
72439;SDS011;60446;50.752;4.352;2024-03-07T11:11:38;33.65;;;14.38;;
72439;SDS011;60446;50.752;4.352;2024-03-07T11:14:10;40.15;;;14.50;;
72439;SDS011;60446;50.752;4.352;2024-03-07T11:16:39;42.23;;;15.37;;
72439;SDS011;60446;50.752;4.352;2024-03-07T11:19:25;38.90;;;15.25;;
72439;SDS011;60446;50.752;4.352;2024-03-07T11:21:54;40.17;;;14.90;;
72439;SDS011;60446;50.752;4.352;2024-03-07T11:24:29;38.13;;;14.57;;
72439;SDS011;60446;50.752;4.352;2024-03-07T11:27:04;38.67;;;13.88;;
72439;SDS011;60446;50.752;4.352;2024-03-07T11:32:15;37.65;;;13.77;;
72439;SDS011;60446;50.752;4.352;2024-03-07T11:34:45;36.13;;;14.23;;
72439;SDS011;60446;50.752;4.352;2024-03-07T11:37:37;39.25;;;14.15;;
72439;SDS011;60446;50.752;4.352;2024-03-07T11:42:53;30.17;;;11.70;;
72439;SDS011;60446;50.752;4.352;2024-03-07T11:45:23;39.05;;;13.25;;
72439;SDS011;60446;50.752;4.352;2024-03-07T11:47:56;30.95;;;13.60;;
72439;SDS011;60446;50.752;4.352;2024-03-07T11:50:27;30.25;;;11.80;;
72439;SDS011;60446;50.752;4.352;2024-03-07T11:52:55;32.10;;;13.50;;
72439;SDS011;60446;50.752;4.352;2024-03-07T11:55:23;36.70;;;14.50;;
72439;SDS011;60446;50.752;4.352;2024-03-07T11:57:50;33.38;;;14.00;;
72439;SDS011;60446;50.752;4.352;2024-03-07T12:00:19;33.80;;;14.70;;
72439;SDS011;60446;50.752;4.352;2024-03-07T12:02:50;32.33;;;13.65;;
72439;SDS011;60446;50.752;4.352;2024-03-07T12:05:21;32.95;;;13.73;;
72439;SDS011;60446;50.752;4.352;2024-03-07T12:07:48;28.53;;;12.70;;
72439;SDS011;60446;50.752;4.352;2024-03-07T12:10:16;33.40;;;14.13;;
72439;SDS011;60446;50.752;4.352;2024-03-07T12:12:51;32.35;;;12.65;;
72439;SDS011;60446;50.752;4.352;2024-03-07T12:15:18;26.17;;;11.20;;
72439;SDS011;60446;50.752;4.352;2024-03-07T12:17:47;30.73;;;13.23;;
72439;SDS011;60446;50.752;4.352;2024-03-07T12:20:16;28.77;;;12.70;;
72439;SDS011;60446;50.752;4.352;2024-03-07T12:23:03;34.03;;;13.05;;
72439;SDS011;60446;50.752;4.352;2024-03-07T12:25:35;35.38;;;12.73;;
72439;SDS011;60446;50.752;4.352;2024-03-07T12:28:03;34.25;;;13.95;;
72439;SDS011;60446;50.752;4.352;2024-03-07T12:33:20;26.93;;;11.70;;
72439;SDS011;60446;50.752;4.352;2024-03-07T12:35:53;27.83;;;11.57;;
72439;SDS011;60446;50.752;4.352;2024-03-07T12:38:32;30.70;;;12.25;;
72439;SDS011;60446;50.752;4.352;2024-03-07T12:41:03;28.35;;;12.18;;
72439;SDS011;60446;50.752;4.352;2024-03-07T12:43:34;30.42;;;12.10;;
72439;SDS011;60446;50.752;4.352;2024-03-07T12:46:02;29.57;;;12.50;;
72439;SDS011;60446;50.752;4.352;2024-03-07T12:48:32;27.80;;;11.90;;
72439;SDS011;60446;50.752;4.352;2024-03-07T12:51:00;30.95;;;13.05;;
72439;SDS011;60446;50.752;4.352;2024-03-07T12:53:28;31.95;;;13.35;;
72439;SDS011;60446;50.752;4.352;2024-03-07T12:55:57;28.45;;;12.25;;
72439;SDS011;60446;50.752;4.352;2024-03-07T12:58:24;30.73;;;13.47;;
72439;SDS011;60446;50.752;4.352;2024-03-07T13:00:53;26.95;;;13.25;;
72439;SDS011;60446;50.752;4.352;2024-03-07T13:03:24;29.52;;;13.68;;
72439;SDS011;60446;50.752;4.352;2024-03-07T13:06:01;33.10;;;13.45;;
72439;SDS011;60446;50.752;4.352;2024-03-07T13:08:31;28.15;;;12.45;;
72439;SDS011;60446;50.752;4.352;2024-03-07T13:10:59;30.63;;;13.10;;
72439;SDS011;60446;50.752;4.352;2024-03-07T13:13:28;26.80;;;11.40;;
72439;SDS011;60446;50.752;4.352;2024-03-07T13:15:55;30.73;;;12.68;;
72439;SDS011;60446;50.752;4.352;2024-03-07T13:18:23;30.83;;;12.93;;
72439;SDS011;60446;50.752;4.352;2024-03-07T13:20:51;30.50;;;13.18;;
72439;SDS011;60446;50.752;4.352;2024-03-07T13:23:19;29.47;;;12.87;;
72439;SDS011;60446;50.752;4.352;2024-03-07T13:25:46;25.73;;;11.23;;
72439;SDS011;60446;50.752;4.352;2024-03-07T13:28:15;31.25;;;13.80;;
72439;SDS011;60446;50.752;4.352;2024-03-07T13:30:44;27.65;;;13.85;;
72439;SDS011;60446;50.752;4.352;2024-03-07T13:33:16;29.58;;;13.18;;
72439;SDS011;60446;50.752;4.352;2024-03-07T13:35:43;29.87;;;12.57;;
72439;SDS011;60446;50.752;4.352;2024-03-07T13:38:11;27.50;;;12.38;;
72439;SDS011;60446;50.752;4.352;2024-03-07T13:40:39;31.30;;;13.55;;
72439;SDS011;60446;50.752;4.352;2024-03-07T13:43:07;29.80;;;12.48;;
72439;SDS011;60446;50.752;4.352;2024-03-07T13:45:35;30.08;;;12.52;;
72439;SDS011;60446;50.752;4.352;2024-03-07T13:48:07;29.73;;;12.00;;
72439;SDS011;60446;50.752;4.352;2024-03-07T13:50:40;32.10;;;12.57;;
72439;SDS011;60446;50.752;4.352;2024-03-07T13:53:11;27.33;;;11.65;;
72439;SDS011;60446;50.752;4.352;2024-03-07T14:10:33;22.80;;;10.15;;
72439;SDS011;60446;50.752;4.352;2024-03-07T14:32:12;26.03;;;12.27;;
72439;SDS011;60446;50.752;4.352;2024-03-07T14:35:00;23.15;;;10.13;;
72439;SDS011;60446;50.752;4.352;2024-03-07T14:37:36;28.17;;;11.80;;
72439;SDS011;60446;50.752;4.352;2024-03-07T14:40:16;23.40;;;10.88;;
72439;SDS011;60446;50.752;4.352;2024-03-07T14:42:46;21.92;;;10.20;;
72439;SDS011;60446;50.752;4.352;2024-03-07T14:45:19;24.43;;;10.23;;
72439;SDS011;60446;50.752;4.352;2024-03-07T14:47:53;25.63;;;9.68;;
72439;SDS011;60446;50.752;4.352;2024-03-07T14:50:21;24.00;;;11.02;;
72439;SDS011;60446;50.752;4.352;2024-03-07T14:52:51;23.92;;;11.25;;
72439;SDS011;60446;50.752;4.352;2024-03-07T14:55:18;21.17;;;8.75;;
72439;SDS011;60446;50.752;4.352;2024-03-07T14:57:46;25.80;;;10.20;;
72439;SDS011;60446;50.752;4.352;2024-03-07T15:00:14;25.52;;;9.48;;
72439;SDS011;60446;50.752;4.352;2024-03-07T15:02:49;23.55;;;10.43;;
72439;SDS011;60446;50.752;4.352;2024-03-07T15:05:16;24.73;;;10.02;;
72439;SDS011;60446;50.752;4.352;2024-03-07T15:07:46;23.40;;;10.65;;
72439;SDS011;60446;50.752;4.352;2024-03-07T15:12:55;23.02;;;10.55;;
72439;SDS011;60446;50.752;4.352;2024-03-07T15:15:24;23.48;;;10.77;;
72439;SDS011;60446;50.752;4.352;2024-03-07T15:17:54;21.65;;;10.02;;
72439;SDS011;60446;50.752;4.352;2024-03-07T15:20:22;23.65;;;9.65;;
72439;SDS011;60446;50.752;4.352;2024-03-07T15:22:50;20.23;;;10.13;;
72439;SDS011;60446;50.752;4.352;2024-03-07T15:25:22;22.40;;;10.35;;
72439;SDS011;60446;50.752;4.352;2024-03-07T15:27:51;22.27;;;9.93;;